Data for 04/11/2005

Time Sea-Level Adjusted Pressure Absolute Pressure Temperature Relative Humidity Dew Point   
(mb) (inHg) (mb) (inHg) (C) (F) (%) (C) (F)
00:05 1018 30.06 847 25.01 0.9 33.6 50 -8.5 16.8
00:10 1018 30.06 847 25.01 1.1 34 49 -8.3 17
00:15 1018 30.06 847 25.01 1.1 34 49 -8.6 16.6
00:20 1018 30.06 847 25.01 0.9 33.7 51 -8.1 17.4
00:25 1018 30.06 847 25.01 0.6 33 52 -8.2 17.3
00:30 1018 30.06 847 25.01 0.6 33 51 -8.3 17
00:35 1018 30.06 847 25.01 0.7 33.3 51 -8.4 17
00:40 1018 30.06 847 25.01 0.6 33.1 52 -8.3 17.1
00:45 1018 30.06 847 25.01 0.5 32.9 52 -8.2 17.2
00:50 1018 30.06 847 25.01 0.4 32.7 52 -8.3 17
00:55 1018 30.06 847 25.01 0.4 32.8 52 -8.4 16.8
01:00 1018 30.06 847 25.01 0.6 33.1 51 -8.5 16.7
01:05 1018 30.06 847 25.01 0.5 33 51 -8.5 16.8
01:10 1018 30.06 847 25.01 0.6 33 51 -8.4 16.9
01:15 1018 30.06 847 25.01 0.5 32.9 51 -8.5 16.8
01:20 1018 30.06 847 25.01 0.5 32.9 51 -8.4 16.9
01:25 1018 30.06 847 25.01 0.5 32.9 51 -8.5 16.7
01:30 1018 30.06 847 25.01 0.6 33 51 -8.5 16.6
01:35 1018 30.06 847 25.01 0.7 33.2 50 -8.7 16.4
01:40 1018 30.06 847 25.01 0.6 33.1 51 -8.5 16.8
01:45 1018 30.06 847 25.01 0.5 32.9 52 -8.4 17
01:50 1018 30.06 847 25.01 0.3 32.6 52 -8.4 17
01:55 1018 30.06 847 25.01 0.4 32.7 52 -8.3 17
02:00 1018 30.06 847 25.01 0.3 32.6 53 -8.3 17.1
02:05 1018 30.06 847 25.01 0.4 32.7 52 -8.3 17.1
02:10 1018 30.06 847 25.01 0.3 32.6 53 -8.2 17.2
02:15 1018 30.06 847 25.01 0.5 32.8 52 -8.2 17.2
02:20 1018 30.06 847 25.01 0.4 32.6 53 -8.1 17.4
02:25 1018 30.06 847 25.01 0.3 32.6 53 -8.1 17.4
02:30 1018 30.06 847 25.01 0.2 32.3 54 -8 17.6
02:35 1018 30.06 847 25.01 -0.2 31.6 55 -8.2 17.2
02:40 1017 30.03 847 25.01 -0.2 31.6 54 -8.4 16.9
02:45 1017 30.03 847 25.01 -0.2 31.7 55 -8.2 17.2
02:50 1017 30.03 847 25.01 -0.1 31.7 55 -8.2 17.3
02:55 1017 30.03 847 25.01 -0.1 31.9 55 -8 17.6
03:00 1017 30.03 847 25.01 0 32 56 -7.9 17.9
03:05 1017 30.03 847 25.01 -0.1 31.8 55 -8.1 17.5
03:10 1017 30.03 846 24.98 0 32 55 -8 17.6
03:15 1017 30.03 847 25.01 -0 31.9 56 -7.9 17.9
03:20 1017 30.03 847 25.01 -0.2 31.7 56 -7.9 17.7
03:25 1017 30.03 847 25.01 -0.1 31.8 55 -8.1 17.5
03:30 1017 30.03 847 25.01 0 32 55 -8 17.6
03:35 1017 30.03 847 25.01 -0.2 31.7 56 -8 17.7
03:40 1017 30.03 847 25.01 -0.4 31.4 56 -8.1 17.4
03:45 1017 30.03 847 25.01 -0.2 31.6 55 -8.2 17.3
03:50 1017 30.03 846 24.98 -0.1 31.9 54 -8.2 17.3
03:55 1017 30.03 846 24.98 0 32.1 54 -8.2 17.2
04:00 1017 30.03 846 24.98 0.1 32.2 54 -8.1 17.5
04:05 1017 30.03 846 24.98 -0 31.9 55 -8.1 17.5
04:10 1017 30.03 846 24.98 -0.1 31.8 55 -8 17.5
04:15 1017 30.03 846 24.98 -0.1 31.8 56 -8 17.6
04:20 1017 30.03 846 24.98 -0.2 31.6 56 -8 17.5
04:25 1017 30.03 846 24.98 -0.3 31.4 56 -8.1 17.5
04:30 1017 30.03 846 24.98 -0.3 31.4 56 -8.1 17.4
04:35 1017 30.03 846 24.98 -0.3 31.4 56 -8.1 17.4
04:40 1017 30.03 846 24.98 -0.4 31.3 57 -8 17.6
04:45 1017 30.03 846 24.98 -0.6 30.9 57 -8.1 17.5
04:50 1017 30.03 846 24.98 -0.6 31 57 -8.1 17.4
04:55 1017 30.03 846 24.98 -0.5 31.2 56 -8.1 17.4
05:00 1017 30.03 846 24.98 -0.5 31 57 -8 17.6
05:05 1017 30.03 846 24.98 -0.6 30.9 58 -8 17.6
05:10 1017 30.03 846 24.98 -0.7 30.8 58 -8 17.6
05:15 1017 30.03 846 24.98 -0.8 30.6 57 -8.2 17.2
05:20 1017 30.03 846 24.98 -0.8 30.5 58 -8 17.6
05:25 1017 30.03 846 24.98 -0.8 30.6 58 -8 17.6
05:30 1017 30.03 846 24.98 -0.8 30.5 58 -8.1 17.4
05:35 1017 30.03 846 24.98 -0.7 30.7 58 -8.1 17.5
05:40 1017 30.03 846 24.98 -0.7 30.7 57 -8.2 17.3
05:45 1016 30 846 24.98 -0.7 30.8 58 -8.1 17.5
05:50 1016 30 846 24.98 -0.8 30.5 58 -8 17.6
05:55 1016 30 846 24.98 -1 30.2 59 -7.9 17.7
06:00 1016 30 846 24.98 -1.1 30.1 59 -8.1 17.5
06:05 1016 30 845 24.95 -1.2 29.9 59 -8.2 17.2
06:10 1016 30 845 24.95 -1.1 30.1 58 -8.3 17
06:15 1016 30 845 24.95 -0.7 30.7 56 -8.5 16.8
06:20 1016 30 845 24.95 -0.5 31 56 -8.2 17.2
06:25 1016 30 845 24.95 -0.4 31.3 55 -8.4 16.9
06:30 1016 30 845 24.95 -0.3 31.4 55 -8.4 16.8
06:35 1016 30 845 24.95 -0.2 31.7 53 -8.6 16.6
06:40 1016 30 845 24.95 -0.1 31.8 54 -8.3 17.1
06:45 1016 30 845 24.95 -0.5 31 56 -8.3 17.1
06:50 1016 30 845 24.95 -0.7 30.8 56 -8.4 16.9
06:55 1016 30 845 24.95 -0.4 31.2 55 -8.4 16.9
07:00 1016 30 845 24.95 -0.4 31.2 55 -8.3 17.1
07:05 1016 30 845 24.95 -0.4 31.3 55 -8.4 16.9
07:10 1016 30 845 24.95 -0.3 31.5 55 -8.4 17
07:15 1016 30 845 24.95 -0.2 31.6 54 -8.5 16.8
07:20 1016 30 845 24.95 -0.2 31.7 54 -8.3 17.1
07:25 1016 30 845 24.95 -0.2 31.7 54 -8.3 17
07:30 1016 30 845 24.95 -0 32 53 -8.4 16.9
07:35 1016 30 845 24.95 0.1 32.2 54 -8.2 17.3
07:40 1016 30 845 24.95 0.2 32.4 53 -8.2 17.3
07:45 1016 30 845 24.95 0.2 32.3 54 -8.1 17.4
07:50 1016 30 845 24.95 0.3 32.6 54 -7.9 17.7
07:55 1016 30 845 24.95 0.4 32.7 55 -7.6 18.3
08:00 1016 30 845 24.95 0.6 33 54 -7.7 18.2
08:05 1016 30 845 24.95 0.7 33.3 53 -7.8 17.9
08:10 1016 30 845 24.95 1.1 34 54 -7.2 19.1
08:15 1016 30 845 24.95 0.9 33.7 54 -7.4 18.7
08:20 1016 30 845 24.95 1 33.8 55 -7 19.4
08:25 1016 30 845 24.95 1.2 34.1 53 -7.4 18.7
08:30 1016 30 845 24.95 1.8 35.2 50 -7.4 18.6
08:35 1016 30 845 24.95 2.3 36.2 48 -7.5 18.5
08:40 1016 30 845 24.95 2.7 36.9 45 -7.9 17.7
08:45 1016 30 845 24.95 2.8 37.1 46 -7.8 18
08:50 1016 30 845 24.95 3.2 37.7 44 -8 17.5
08:55 1015 29.97 845 24.95 3.8 38.8 42 -7.9 17.8
09:00 1016 30 845 24.95 3.9 39 42 -7.9 17.8
09:05 1016 30 845 24.95 3.9 39 43 -7.7 18.1
09:10 1016 30 845 24.95 3.9 39 41 -8.3 17.1
09:15 1016 30 845 24.95 4.2 39.6 40 -8.2 17.2
09:20 1016 30 845 24.95 4.4 40 41 -7.8 17.9
09:25 1016 30 845 24.95 4.7 40.4 39 -8 17.5
09:30 1016 30 845 24.95 4.9 40.8 38 -8.1 17.4
09:35 1016 30 845 24.95 5.5 41.8 37 -8.1 17.4
09:40 1016 30 845 24.95 6.1 43 34 -8.6 16.5
09:45 1016 30 845 24.95 7.2 44.9 32 -8.5 16.8
09:50 1016 30 845 24.95 7.6 45.8 31 -8.4 16.9
09:55 1016 30 845 24.95 8 46.5 29 -8.9 15.9
10:00 1016 30 845 24.95 7.8 46 30 -8.9 16.1
10:05 1016 30 845 24.95 7.8 46.1 30 -8.7 16.3
10:10 1016 30 845 24.95 8.3 46.9 30 -8.3 17
10:15 1016 30 845 24.95 7.9 46.3 31 -8.2 17.3
10:20 1016 30 845 24.95 8 46.5 31 -7.9 17.8
10:25 1015 29.97 845 24.95 8.4 47 30 -8.1 17.4
10:30 1015 29.97 845 24.95 9.1 48.3 31 -7.3 18.9
10:35 1015 29.97 845 24.95 8.8 47.9 29 -8.2 17.3
10:40 1015 29.97 845 24.95 8.3 46.9 31 -7.8 18
10:45 1015 29.97 845 24.95 8.8 47.8 30 -7.9 17.8
10:50 1015 29.97 845 24.95 9.3 48.8 28 -8.5 16.8
10:55 1015 29.97 844 24.92 9.7 49.5 25 -9.6 14.7
11:00 1015 29.97 844 24.92 9.7 49.5 27 -8.3 17
11:05 1015 29.97 844 24.92 9.2 48.5 26 -9.6 14.7
11:10 1015 29.97 844 24.92 9.8 49.6 26 -8.7 16.3
11:15 1015 29.97 844 24.92 10.6 51.1 24 -9 15.7
11:20 1015 29.97 844 24.92 9.9 49.9 27 -8.2 17.2
11:25 1015 29.97 844 24.92 10.2 50.3 25 -8.8 16.2
11:30 1015 29.97 844 24.92 10.2 50.4 27 -8 17.5
11:35 1015 29.97 844 24.92 10.6 51.1 25 -8.5 16.7
11:40 1015 29.97 844 24.92 10.9 51.5 25 -8.5 16.7
11:45 1015 29.97 844 24.92 11.3 52.4 25 -8.2 17.2
11:50 1015 29.97 844 24.92 10.6 51.1 25 -8.6 16.5
11:55 1015 29.97 844 24.92 10.5 51 25 -8.9 16.1
12:00 1015 29.97 844 24.92 11.3 52.3 24 -8.8 16.2
12:05 1015 29.97 844 24.92 11.4 52.6 23 -8.9 16
12:10 1015 29.97 844 24.92 11.6 52.8 23 -8.6 16.6
12:15 1015 29.97 844 24.92 11.8 53.2 23 -8.5 16.8
12:20 1015 29.97 844 24.92 12.2 53.9 22 -8.7 16.3
12:25 1015 29.97 844 24.92 12.1 53.7 22 -9.2 15.5
12:30 1015 29.97 844 24.92 12.2 54 22 -9.1 15.6
12:35 1015 29.97 844 24.92 12.3 54.2 22 -8.7 16.3
12:40 1015 29.97 844 24.92 12.4 54.3 22 -8.9 16
12:45 1015 29.97 844 24.92 12.5 54.5 22 -8.7 16.4
12:50 1015 29.97 844 24.92 12.7 54.8 21 -8.9 16
12:55 1015 29.97 844 24.92 12.5 54.5 23 -8.3 17.1
13:00 1014 29.94 844 24.92 12.5 54.5 22 -8.5 16.7
13:05 1014 29.94 844 24.92 12.4 54.3 22 -8.4 16.8
13:10 1014 29.94 844 24.92 12.4 54.3 22 -8.7 16.3
13:15 1014 29.94 844 24.92 12.6 54.6 23 -8.1 17.4
13:20 1014 29.94 843 24.89 12.5 54.5 23 -8.3 17
13:25 1014 29.94 843 24.89 12.3 54.2 23 -8.3 17
13:30 1014 29.94 843 24.89 12.5 54.4 22 -8.6 16.5
13:35 1014 29.94 843 24.89 12.8 55 22 -8.5 16.6
13:40 1014 29.94 843 24.89 13.4 56.1 21 -8.7 16.3
13:45 1014 29.94 843 24.89 13.7 56.6 21 -8.1 17.4
13:50 1014 29.94 843 24.89 14.5 58 20 -8.4 16.9
13:55 1014 29.94 843 24.89 14.2 57.6 19 -8.8 16.2
14:00 1014 29.94 843 24.89 13.9 57 20 -8.5 16.7
14:05 1014 29.94 843 24.89 14 57.3 19 -9.3 15.3
14:10 1014 29.94 843 24.89 14.5 58.1 19 -8.9 15.9
14:15 1014 29.94 843 24.89 15.2 59.3 19 -8.4 16.8
14:20 1014 29.94 843 24.89 15 58.9 17 -10 14
14:25 1014 29.94 843 24.89 14.9 58.9 17 -10 14.1
14:30 1014 29.94 843 24.89 14 57.1 18 -9.7 14.6
14:35 1014 29.94 843 24.89 14.9 58.7 18 -8.9 16
14:40 1014 29.94 843 24.89 15.1 59.1 18 -8.9 16
14:45 1014 29.94 843 24.89 15 58.9 18 -9.4 15
14:50 1014 29.94 843 24.89 14.9 58.8 19 -8.4 16.8
14:55 1014 29.94 843 24.89 14.8 58.6 19 -8.6 16.6
15:00 1014 29.94 843 24.89 14.8 58.6 20 -7.7 18.1
15:05 1014 29.94 843 24.89 15.2 59.3 19 -8 17.6
15:10 1013 29.91 843 24.89 15.4 59.7 19 -7.8 17.9
15:15 1013 29.91 843 24.89 15.5 59.9 19 -7.8 17.9
15:20 1013 29.91 843 24.89 14.6 58.2 21 -7.7 18.2
15:25 1013 29.91 843 24.89 14.1 57.5 21 -8 17.6
15:30 1013 29.91 843 24.89 14.7 58.4 21 -7.6 18.3
15:35 1013 29.91 842 24.86 14.8 58.7 20 -7.9 17.9
15:40 1013 29.91 842 24.86 14.2 57.6 22 -7.3 18.8
15:45 1013 29.91 843 24.89 14.2 57.5 22 -7.3 18.9
15:50 1013 29.91 843 24.89 13.9 57 22 -7.7 18.2
15:55 1013 29.91 842 24.86 13.8 56.9 22 -7.6 18.4
16:00 1013 29.91 843 24.89 13.7 56.7 22 -7.3 18.9
16:05 1013 29.91 843 24.89 13.8 56.8 22 -7.3 18.8
16:10 1013 29.91 843 24.89 13.8 56.9 24 -6.4 20.5
16:15 1013 29.91 843 24.89 13.9 57 24 -6.2 20.8
16:20 1013 29.91 843 24.89 13.8 56.8 24 -6.4 20.5
16:25 1013 29.91 842 24.86 13.8 56.8 24 -6.4 20.5
16:30 1013 29.91 842 24.86 13.8 56.8 24 -6.4 20.4
16:35 1013 29.91 842 24.86 13.7 56.7 24 -6.3 20.6
16:40 1013 29.91 842 24.86 14.3 57.8 23 -6.4 20.6
16:45 1013 29.91 843 24.89 14.6 58.4 23 -6.1 21
16:50 1013 29.91 843 24.89 14.6 58.3 24 -5.9 21.3
16:55 1013 29.91 843 24.89 14.5 58 24 -5.7 21.8
17:00 1013 29.91 843 24.89 14.6 58.2 23 -6.2 20.8
17:05 1013 29.91 843 24.89 14.1 57.4 23 -6.5 20.2
17:10 1013 29.91 843 24.89 14 57.2 24 -6.3 20.7
17:15 1013 29.91 843 24.89 14.3 57.8 23 -6.5 20.4
17:20 1013 29.91 843 24.89 14.7 58.4 22 -6.7 20
17:25 1013 29.91 842 24.86 15.1 59.2 22 -6.1 20.9
17:30 1013 29.91 842 24.86 15.2 59.3 22 -6.1 21
17:35 1013 29.91 842 24.86 14.9 58.8 23 -6.2 20.8
17:40 1013 29.91 842 24.86 14.2 57.6 23 -6.5 20.2
17:45 1013 29.91 842 24.86 14.3 57.8 23 -6.6 20.1
17:50 1013 29.91 842 24.86 14.6 58.2 23 -6.2 20.9
17:55 1013 29.91 842 24.86 14.7 58.4 23 -6.5 20.4
18:00 1013 29.91 842 24.86 14.6 58.2 23 -6.3 20.6
18:05 1013 29.91 842 24.86 14.4 57.9 23 -6.3 20.7
18:10 1013 29.91 842 24.86 14.2 57.5 24 -6.2 20.8
18:15 1013 29.91 842 24.86 13.7 56.7 25 -6.1 20.9
18:20 1013 29.91 842 24.86 13.4 56.1 26 -5.9 21.4
18:25 1013 29.91 842 24.86 13.2 55.8 26 -6 21.2
18:30 1013 29.91 842 24.86 13.1 55.6 28 -4.9 23.1
18:35 1013 29.91 842 24.86 12.9 55.3 27 -5.6 21.9
18:40 1013 29.91 842 24.86 12.8 55 27 -5.7 21.7
18:45 1013 29.91 842 24.86 12.8 55.1 26 -5.9 21.3
18:50 1013 29.91 842 24.86 13.1 55.5 27 -5.5 22.1
18:55 1013 29.91 842 24.86 13.1 55.5 27 -5.7 21.8
19:00 1013 29.91 842 24.86 13 55.5 26 -5.9 21.4
19:05 1013 29.91 842 24.86 13 55.3 27 -5.8 21.6
19:10 1013 29.91 842 24.86 13.1 55.5 27 -5.4 22.2
19:15 1013 29.91 842 24.86 13.1 55.5 28 -5.1 22.7
19:20 1013 29.91 842 24.86 12.9 55.3 27 -5.5 22.2
19:25 1013 29.91 842 24.86 12.8 55 28 -5.3 22.4
19:30 1013 29.91 842 24.86 12.5 54.5 29 -5.1 22.9
19:35 1013 29.91 842 24.86 12.1 53.8 31 -4.6 23.8
19:40 1013 29.91 842 24.86 11.8 53.2 31 -4.8 23.4
19:45 1013 29.91 842 24.86 11.7 53 31 -5.1 22.9
19:50 1013 29.91 842 24.86 11.6 52.9 31 -5.1 22.9
19:55 1013 29.91 842 24.86 11.5 52.8 31 -4.9 23.1
20:00 1013 29.91 842 24.86 11.4 52.5 31 -4.9 23.1
20:05 1013 29.91 842 24.86 11.2 52.2 32 -4.8 23.3
20:10 1013 29.91 842 24.86 11 51.7 33 -4.7 23.6
20:15 1013 29.91 842 24.86 10.6 51.1 33 -4.8 23.4
20:20 1013 29.91 842 24.86 10.3 50.6 34 -4.9 23.2
20:25 1013 29.91 842 24.86 10.1 50.2 34 -5 23
20:30 1013 29.91 842 24.86 10 50 34 -5.1 22.9
20:35 1013 29.91 842 24.86 9.6 49.4 37 -4.3 24.3
20:40 1013 29.91 843 24.89 9.2 48.6 37 -4.8 23.4
20:45 1013 29.91 843 24.89 9.4 49 37 -4.6 23.6
20:50 1013 29.91 843 24.89 9.5 49.1 37 -4.6 23.8
20:55 1013 29.91 843 24.89 9.6 49.2 37 -4.4 24
21:00 1013 29.91 843 24.89 9.3 48.8 37 -4.5 23.9
21:05 1013 29.91 843 24.89 9.4 48.9 37 -4.5 24
21:10 1014 29.94 843 24.89 9.3 48.7 37 -4.6 23.8
21:15 1014 29.94 843 24.89 9.4 48.9 38 -4.1 24.7
21:20 1014 29.94 843 24.89 9.3 48.8 36 -5 23
21:25 1014 29.94 843 24.89 9.4 48.9 35 -5.3 22.5
21:30 1014 29.94 843 24.89 9.3 48.7 36 -5 23
21:35 1014 29.94 843 24.89 8.8 47.9 39 -4.4 24.2
21:40 1014 29.94 843 24.89 8.3 46.9 40 -4.5 23.9
21:45 1014 29.94 843 24.89 8.4 47.1 40 -4.4 24
21:50 1014 29.94 843 24.89 8.3 46.9 39 -4.7 23.6
21:55 1014 29.94 843 24.89 8.4 47.1 39 -4.6 23.7
22:00 1014 29.94 843 24.89 8.5 47.4 38 -5.1 22.8
22:05 1014 29.94 843 24.89 8.7 47.7 39 -4.6 23.8
22:10 1014 29.94 843 24.89 8.5 47.2 38 -5 23
22:15 1014 29.94 843 24.89 8.5 47.3 40 -4.4 24
22:20 1014 29.94 843 24.89 8.1 46.6 41 -4.4 24.1
22:25 1014 29.94 843 24.89 8.1 46.7 39 -4.8 23.3
22:30 1014 29.94 843 24.89 8.4 47.1 38 -5.2 22.6
22:35 1014 29.94 843 24.89 8.6 47.4 40 -4.3 24.2
22:40 1014 29.94 843 24.89 8.5 47.2 41 -4 24.8
22:45 1014 29.94 843 24.89 8.5 47.3 40 -4.3 24.3
22:50 1014 29.94 843 24.89 8.7 47.7 38 -4.7 23.5
22:55 1014 29.94 843 24.89 8.8 47.8 39 -4.3 24.2
23:00 1014 29.94 843 24.89 8.9 48 38 -4.6 23.8
23:05 1014 29.94 843 24.89 9 48.2 38 -4.4 24.1
23:10 1014 29.94 843 24.89 8.9 48 39 -4.3 24.3
23:15 1014 29.94 843 24.89 8.8 47.9 39 -4.2 24.4
23:20 1014 29.94 843 24.89 8.7 47.6 39 -4.4 24.1
23:25 1014 29.94 843 24.89 8.4 47.1 40 -4.3 24.2
23:30 1014 29.94 843 24.89 8.1 46.6 42 -4.1 24.6
23:35 1014 29.94 844 24.92 7.4 45.3 46 -3.5 25.6
23:40 1014 29.94 844 24.92 7.1 44.7 45 -3.9 24.9
23:45 1014 29.94 844 24.92 7 44.6 46 -3.9 25
23:50 1014 29.94 844 24.92 6.7 44 46 -4 24.8
23:55 1014 29.94 844 24.92 6.6 44 47 -3.9 24.9
24:00 1014 29.94 844 24.92 6.4 43.6 47 -4.1 24.6